Time;durP1;ratioP1;P1;durP2;ratioP2;P2;SDS_P1;SDS_P2;PMS_P1;PMS_P2;Temp;Humidity;BMP_temperature;BMP_pressure;BME280_temperature;BME280_humidity;BME280_pressure;Samples;Min_cycle;Max_cycle;Signal;HPM_P1;HPM_P2
2021/07/20 00:00:16;;;;;;;0.98;0.73;;;15.10;99.90;;;;;;5008287;28;20114;-67
2021/07/20 00:02:45;;;;;;;1.33;1.23;;;15.10;99.90;;;;;;5009155;28;20042;-65
2021/07/20 00:05:16;;;;;;;2.03;1.15;;;15.10;99.90;;;;;;5008733;28;21098;-66
2021/07/20 00:07:43;;;;;;;1.55;0.95;;;15.20;99.90;;;;;;5003981;28;20131;-66
2021/07/20 00:10:13;;;;;;;1.65;1.08;;;15.20;99.90;;;;;;5007866;28;20050;-66
2021/07/20 00:12:41;;;;;;;2.28;1.40;;;15.20;99.90;;;;;;5010858;28;20116;-67
2021/07/20 00:15:10;;;;;;;3.15;1.30;;;15.20;99.90;;;;;;5010868;28;20053;-66
2021/07/20 00:17:42;;;;;;;3.33;1.30;;;15.20;99.90;;;;;;5006581;28;20049;-66
2021/07/20 00:20:16;;;;;;;0.90;0.80;;;15.20;99.90;;;;;;5008119;28;20331;-67
2021/07/20 00:22:43;;;;;;;1.77;0.90;;;15.10;99.90;;;;;;5001061;28;20046;-65
2021/07/20 00:25:11;;;;;;;3.47;1.35;;;15.10;99.90;;;;;;5006828;28;20061;-67
2021/07/20 00:27:38;;;;;;;2.53;1.05;;;15.10;99.90;;;;;;5007202;28;20050;-67
2021/07/20 00:30:07;;;;;;;1.40;1.30;;;15.10;99.90;;;;;;5004803;28;20503;-66
2021/07/20 00:32:35;;;;;;;2.00;1.30;;;15.00;99.90;;;;;;5009800;28;20092;-66
2021/07/20 00:35:03;;;;;;;1.15;1.05;;;15.00;99.90;;;;;;5007001;28;20120;-67
2021/07/20 00:37:31;;;;;;;2.95;1.23;;;15.00;99.90;;;;;;4930987;28;20199;-66
2021/07/20 00:40:14;;;;;;;2.90;1.00;;;15.00;99.90;;;;;;2435678;28;10003690;-67
2021/07/20 00:42:41;;;;;;;2.05;1.52;;;14.90;99.90;;;;;;3968632;28;10001087;-67
2021/07/20 00:45:11;;;;;;;4.13;1.45;;;14.90;99.90;;;;;;5002883;28;20054;-67
2021/07/20 00:47:39;;;;;;;3.92;1.42;;;14.90;99.90;;;;;;5001312;28;20042;-66
2021/07/20 00:50:08;;;;;;;2.60;1.35;;;14.90;99.90;;;;;;5005425;28;20054;-65
2021/07/20 00:52:38;;;;;;;1.38;1.13;;;14.90;99.90;;;;;;5007272;28;20042;-66
2021/07/20 00:55:08;;;;;;;1.02;0.93;;;14.90;99.90;;;;;;4987715;28;20053;-66
2021/07/20 00:57:37;;;;;;;;;;;14.90;99.90;;;;;;4990026;28;20107;-67
2021/07/20 01:00:09;;;;;;;1.42;1.15;;;15.00;99.90;;;;;;5006836;28;19925;-66
2021/07/20 01:02:36;;;;;;;1.20;1.10;;;15.00;99.90;;;;;;5008540;28;20042;-67
2021/07/20 01:05:11;;;;;;;1.33;1.23;;;15.00;99.90;;;;;;5006835;28;20049;-65
2021/07/20 01:07:45;;;;;;;1.42;1.33;;;15.00;99.90;;;;;;4988137;28;20046;-67
2021/07/20 01:10:14;;;;;;;3.45;1.17;;;15.00;99.90;;;;;;5006653;28;20050;-66
2021/07/20 01:12:43;;;;;;;1.95;1.35;;;15.00;99.90;;;;;;5007281;28;20053;-66
2021/07/20 01:15:12;;;;;;;1.88;1.10;;;15.00;99.90;;;;;;4992325;28;20423;-66
2021/07/20 01:17:41;;;;;;;1.42;1.15;;;15.00;99.90;;;;;;5007826;28;20054;-65
2021/07/20 01:20:11;;;;;;;3.33;1.58;;;14.90;99.90;;;;;;5008375;28;20042;-66
2021/07/20 01:22:43;;;;;;;1.65;1.55;;;14.90;99.90;;;;;;5001511;28;20176;-66
2021/07/20 01:25:12;;;;;;;0.90;0.85;;;14.90;99.90;;;;;;5007951;28;20570;-66
2021/07/20 01:28:06;;;;;;;2.10;1.27;;;14.90;99.90;;;;;;5000178;28;20045;-65
2021/07/20 01:30:38;;;;;;;3.22;1.17;;;14.90;99.90;;;;;;4979852;28;20050;-67
2021/07/20 01:33:06;;;;;;;2.30;1.77;;;14.90;99.90;;;;;;4969974;28;1078175;-66
2021/07/20 01:35:34;;;;;;;3.15;1.27;;;14.80;99.90;;;;;;5004853;28;20358;-67
2021/07/20 01:38:04;;;;;;;3.00;1.10;;;14.90;99.90;;;;;;5006618;28;20077;-66
2021/07/20 01:40:32;;;;;;;4.28;1.48;;;14.90;99.90;;;;;;5006247;28;20042;-66
2021/07/20 01:43:02;;;;;;;1.33;1.00;;;14.90;99.90;;;;;;5004439;28;20057;-66
2021/07/20 01:45:33;;;;;;;3.08;1.65;;;14.90;99.90;;;;;;4981949;28;20045;-66
2021/07/20 01:48:02;;;;;;;2.85;1.25;;;14.90;99.90;;;;;;5007438;28;20069;-66
2021/07/20 01:50:31;;;;;;;1.25;1.02;;;14.90;99.90;;;;;;4981660;28;20829;-63
2021/07/20 01:52:58;;;;;;;3.20;0.90;;;15.10;99.90;;;;;;5005683;28;20136;-64
2021/07/20 01:55:28;;;;;;;1.90;1.25;;;15.20;99.90;;;;;;4985218;28;20042;-65
2021/07/20 01:57:57;;;;;;;2.58;0.80;;;15.30;99.90;;;;;;5005935;28;20092;-65
2021/07/20 02:00:31;;;;;;;8.15;2.40;;;15.50;99.90;;;;;;4985448;28;20045;-63
2021/07/20 02:03:21;;;;;;;0.60;0.60;;;15.70;99.90;;;;;;5004798;28;20050;-64
2021/07/20 02:08:48;;;;;;;3.58;0.93;;;15.80;99.90;;;;;;5005449;28;20447;-64
2021/07/20 02:11:26;;;;;;;1.05;0.95;;;15.70;99.90;;;;;;5003544;28;20359;-63
2021/07/20 02:14:14;;;;;;;1.13;1.02;;;15.70;99.90;;;;;;5002487;28;20068;-63
2021/07/20 02:17:03;;;;;;;2.15;1.02;;;15.50;99.90;;;;;;4954515;28;20050;-65
2021/07/20 02:19:53;;;;;;;1.63;1.05;;;15.40;99.90;;;;;;5003977;28;20467;-64
2021/07/20 02:22:34;;;;;;;1.20;1.00;;;15.30;99.90;;;;;;5000180;28;20136;-64
2021/07/20 02:25:03;;;;;;;0.80;0.70;;;15.20;99.90;;;;;;4987349;28;20061;-64
2021/07/20 02:27:31;;;;;;;1.30;1.20;;;15.20;99.90;;;;;;5002366;28;20041;-63
2021/07/20 02:30:06;;;;;;;2.05;1.50;;;15.10;99.90;;;;;;4981734;28;20053;-63
2021/07/20 02:32:34;;;;;;;2.53;1.00;;;15.00;99.90;;;;;;4986315;28;20156;-64
2021/07/20 02:35:12;;;;;;;0.88;0.85;;;14.90;99.90;;;;;;4984147;28;20041;-64
2021/07/20 02:37:41;;;;;;;2.08;1.10;;;14.90;99.90;;;;;;5002036;28;20084;-63
2021/07/20 02:40:12;;;;;;;4.50;2.00;;;14.90;99.90;;;;;;4986627;28;20061;-63
2021/07/20 02:42:41;;;;;;;1.35;0.85;;;14.80;99.90;;;;;;4988780;28;20125;-64
2021/07/20 02:45:10;;;;;;;1.35;1.05;;;14.80;99.90;;;;;;5000300;28;20104;-64
2021/07/20 02:47:40;;;;;;;1.20;0.98;;;14.80;99.90;;;;;;4999938;28;20047;-66
2021/07/20 02:50:11;;;;;;;1.42;1.30;;;14.80;99.90;;;;;;5003014;28;20058;-63
2021/07/20 02:52:44;;;;;;;1.50;1.35;;;14.70;99.90;;;;;;5002986;28;20053;-64
2021/07/20 02:55:18;;;;;;;3.20;1.15;;;14.70;99.90;;;;;;4983696;28;20041;-64
2021/07/20 02:57:51;;;;;;;1.05;0.80;;;14.70;99.90;;;;;;4982026;28;20062;-64
2021/07/20 03:00:20;;;;;;;1.40;0.98;;;14.70;99.90;;;;;;5005294;28;20049;-65
2021/07/20 03:02:54;;;;;;;2.03;1.48;;;14.70;99.90;;;;;;4985199;28;20739;-64
2021/07/20 03:05:22;;;;;;;1.85;1.13;;;14.70;99.90;;;;;;5001644;28;20127;-64
2021/07/20 03:07:59;;;;;;;1.63;1.10;;;14.60;99.90;;;;;;4983853;28;20048;-63
2021/07/20 03:10:35;;;;;;;1.35;1.25;;;14.60;99.90;;;;;;4979966;28;20184;-64
2021/07/20 03:13:08;;;;;;;2.17;1.98;;;14.60;99.90;;;;;;5000532;28;20073;-63
2021/07/20 03:15:46;;;;;;;1.38;1.10;;;14.70;99.90;;;;;;4999501;28;20049;-65
2021/07/20 03:18:19;;;;;;;2.17;1.65;;;14.70;99.90;;;;;;5004224;28;20050;-64
2021/07/20 03:20:46;;;;;;;1.63;1.52;;;14.70;99.90;;;;;;4983698;28;20480;-64
2021/07/20 03:23:14;;;;;;;1.67;0.85;;;14.70;99.90;;;;;;5002382;28;20068;-65
2021/07/20 03:25:45;;;;;;;1.00;0.82;;;14.80;99.90;;;;;;5000157;28;20335;-63
2021/07/20 03:28:14;;;;;;;0.73;0.73;;;14.80;99.90;;;;;;5001871;28;20108;-64
2021/07/20 03:30:43;;;;;;;1.77;1.13;;;14.80;99.90;;;;;;4983667;28;20069;-65
2021/07/20 03:33:13;;;;;;;2.33;1.40;;;14.80;99.90;;;;;;5000650;28;20114;-63
2021/07/20 03:35:58;;;;;;;1.13;1.02;;;14.90;99.90;;;;;;5002077;28;20049;-64
2021/07/20 03:38:28;;;;;;;2.97;1.25;;;15.10;99.90;;;;;;5003161;28;20049;-63
2021/07/20 03:41:02;;;;;;;1.00;0.93;;;15.10;99.90;;;;;;5003097;28;20141;-63
2021/07/20 03:43:31;;;;;;;1.15;1.00;;;15.10;99.90;;;;;;4983352;28;20061;-64
2021/07/20 03:46:01;;;;;;;3.35;1.13;;;15.10;99.90;;;;;;4982189;28;20057;-65
2021/07/20 03:48:32;;;;;;;3.30;1.40;;;15.20;99.90;;;;;;4999350;28;20058;-64
2021/07/20 03:51:11;;;;;;;1.30;1.00;;;15.20;99.90;;;;;;4982584;28;20392;-64
2021/07/20 03:53:39;;;;;;;1.77;1.67;;;15.20;99.90;;;;;;4997268;28;20160;-63
2021/07/20 03:56:08;;;;;;;1.27;1.02;;;15.30;99.90;;;;;;4986687;28;20057;-63
2021/07/20 03:58:45;;;;;;;1.63;1.33;;;15.30;99.90;;;;;;4998796;28;20085;-66
2021/07/20 04:01:14;;;;;;;1.33;1.20;;;15.40;99.90;;;;;;5003969;28;20045;-63
2021/07/20 04:03:45;;;;;;;1.90;1.13;;;15.70;99.90;;;;;;4984164;28;20054;-64
2021/07/20 04:06:26;;;;;;;0.95;0.88;;;15.80;99.90;;;;;;4997869;28;20050;-64
2021/07/20 04:09:13;;;;;;;1.30;0.60;;;15.90;99.90;;;;;;5000391;28;20076;-66
2021/07/20 04:12:02;;;;;;;1.00;0.90;;;16.20;99.90;;;;;;4980738;28;20130;-65
2021/07/20 04:14:58;;;;;;;1.33;1.02;;;16.30;99.90;;;;;;4995104;28;20050;-64
2021/07/20 04:17:31;;;;;;;0.98;0.88;;;16.50;99.90;;;;;;5002999;28;20141;-66
2021/07/20 04:19:58;;;;;;;1.67;0.75;;;16.70;99.90;;;;;;4988278;28;20113;-64
2021/07/20 04:22:28;;;;;;;;;;;16.80;99.90;;;;;;4988954;28;20073;-63
2021/07/20 04:24:56;;;;;;;2.15;1.88;;;17.00;99.90;;;;;;4983981;28;20401;-66
2021/07/20 04:27:36;;;;;;;1.50;1.40;;;17.20;99.90;;;;;;4986215;28;20054;-64
2021/07/20 04:30:06;;;;;;;1.70;1.60;;;17.60;99.90;;;;;;5007982;28;20115;-64
2021/07/20 04:32:47;;;;;;;2.05;1.40;;;17.80;99.90;;;;;;5004451;28;20058;-63
2021/07/20 04:35:18;;;;;;;1.53;1.10;;;17.90;99.90;;;;;;5005449;28;20106;-63
2021/07/20 04:37:52;;;;;;;0.77;0.70;;;18.00;99.90;;;;;;4986136;28;20383;-64
2021/07/20 04:40:19;;;;;;;0.90;0.50;;;18.20;99.90;;;;;;5008616;28;20045;-64
2021/07/20 04:42:47;;;;;;;0.80;0.70;;;18.30;99.90;;;;;;4988861;28;20042;-64
2021/07/20 04:45:16;;;;;;;2.50;1.13;;;18.40;99.90;;;;;;5003027;28;20434;-63
2021/07/20 04:47:55;;;;;;;1.38;1.15;;;18.40;99.90;;;;;;4987839;28;20529;-63
2021/07/20 04:50:31;;;;;;;1.27;1.17;;;18.50;99.90;;;;;;5002929;28;20061;-64
2021/07/20 04:53:03;;;;;;;1.65;0.60;;;18.60;99.90;;;;;;4977062;28;20117;-64
2021/07/20 04:55:32;;;;;;;0.73;0.73;;;18.60;99.90;;;;;;5003918;28;20056;-64
2021/07/20 04:58:01;;;;;;;1.73;1.23;;;18.70;99.90;;;;;;5004321;28;20499;-63
2021/07/20 05:00:28;;;;;;;1.02;0.90;;;18.70;99.90;;;;;;4988492;28;20053;-63
2021/07/20 05:02:59;;;;;;;1.10;0.55;;;18.80;99.90;;;;;;4986385;28;20065;-63
2021/07/20 05:05:32;;;;;;;1.33;0.60;;;18.80;99.90;;;;;;5001895;28;20057;-63
2021/07/20 05:08:03;;;;;;;0.57;0.43;;;18.90;99.90;;;;;;5003712;28;20198;-64
2021/07/20 05:10:38;;;;;;;2.97;0.55;;;18.90;99.90;;;;;;4997683;28;20050;-65
2021/07/20 05:13:15;;;;;;;0.70;0.70;;;18.90;99.90;;;;;;5001000;28;20074;-65
2021/07/20 05:15:54;;;;;;;2.10;1.00;;;18.90;99.90;;;;;;4985247;28;20046;-63
2021/07/20 05:18:23;;;;;;;0.82;0.75;;;19.00;99.90;;;;;;4980362;28;20062;-63
2021/07/20 05:20:57;;;;;;;1.02;0.73;;;19.00;99.90;;;;;;4986295;28;20053;-64
2021/07/20 05:23:27;;;;;;;0.75;0.50;;;19.10;99.90;;;;;;4999131;28;20053;-63
2021/07/20 05:25:59;;;;;;;1.52;0.82;;;19.10;99.90;;;;;;4986787;28;20058;-63
2021/07/20 05:28:30;;;;;;;1.08;0.50;;;19.10;99.90;;;;;;4998258;28;20046;-64
2021/07/20 05:31:02;;;;;;;0.73;0.52;;;19.10;99.90;;;;;;4988417;28;20057;-64
2021/07/20 05:33:32;;;;;;;1.17;0.60;;;19.20;99.90;;;;;;5000520;28;20456;-63
2021/07/20 05:36:04;;;;;;;0.70;0.35;;;19.30;99.90;;;;;;4982947;28;20085;-63
2021/07/20 05:38:32;;;;;;;0.75;0.70;;;19.30;99.90;;;;;;4984567;28;20632;-64
2021/07/20 05:41:19;;;;;;;1.52;1.15;;;19.30;99.90;;;;;;5001443;28;20125;-63
2021/07/20 05:43:49;;;;;;;1.83;0.65;;;19.40;99.90;;;;;;4987088;28;20049;-64
2021/07/20 05:46:17;;;;;;;0.80;0.47;;;19.40;99.90;;;;;;5003735;28;20048;-63
2021/07/20 05:48:47;;;;;;;1.80;1.10;;;19.50;99.90;;;;;;4984316;28;20054;-64
2021/07/20 05:51:16;;;;;;;1.33;1.02;;;19.50;99.90;;;;;;5001248;28;20046;-66
2021/07/20 05:53:57;;;;;;;0.65;0.40;;;19.50;99.90;;;;;;5000926;28;20053;-64
2021/07/20 05:57:04;;;;;;;1.45;0.70;;;19.50;99.90;;;;;;4987340;28;20050;-65
2021/07/20 05:59:47;;;;;;;2.72;0.90;;;19.50;99.90;;;;;;5000484;28;20081;-64
2021/07/20 06:02:20;;;;;;;1.80;0.80;;;19.50;99.90;;;;;;4999621;28;20046;-63
2021/07/20 06:04:50;;;;;;;2.42;0.75;;;19.60;99.90;;;;;;4985879;28;20137;-64
2021/07/20 06:07:21;;;;;;;0.70;0.45;;;19.60;99.90;;;;;;4996539;28;20212;-64
2021/07/20 06:09:48;;;;;;;1.70;1.45;;;19.70;99.90;;;;;;5000977;28;20072;-66
2021/07/20 06:12:16;;;;;;;1.50;1.23;;;19.70;99.90;;;;;;5001815;28;20527;-64
2021/07/20 06:14:44;;;;;;;0.75;0.70;;;19.80;99.90;;;;;;4999819;28;20108;-63
2021/07/20 06:17:11;;;;;;;2.20;1.58;;;19.80;99.90;;;;;;5001936;28;20080;-63
2021/07/20 06:19:39;;;;;;;0.95;0.65;;;19.80;99.90;;;;;;4998954;28;20408;-65
2021/07/20 06:22:09;;;;;;;0.52;0.52;;;19.80;99.90;;;;;;5001716;28;20172;-64
2021/07/20 06:25:00;;;;;;;1.27;1.17;;;19.90;99.90;;;;;;4983784;28;20574;-63
2021/07/20 06:27:29;;;;;;;1.10;0.50;;;19.80;99.90;;;;;;4992732;28;20046;-64
2021/07/20 06:29:59;;;;;;;0.40;0.35;;;19.80;99.90;;;;;;4998126;28;20038;-64
2021/07/20 06:32:30;;;;;;;1.17;1.00;;;19.90;99.90;;;;;;4985316;28;20054;-64
2021/07/20 06:34:57;;;;;;;1.42;0.57;;;20.00;99.90;;;;;;4999820;28;20053;-64
2021/07/20 06:37:25;;;;;;;0.82;0.35;;;20.00;99.90;;;;;;4997435;28;20047;-64
2021/07/20 06:39:53;;;;;;;0.73;0.63;;;20.00;99.90;;;;;;4997085;28;20487;-65
2021/07/20 06:42:20;;;;;;;1.42;0.45;;;20.00;99.90;;;;;;5002508;28;20050;-63
2021/07/20 06:44:49;;;;;;;0.73;0.35;;;20.10;99.90;;;;;;4999271;28;20052;-63
2021/07/20 06:47:18;;;;;;;1.00;0.40;;;20.10;99.90;;;;;;4994238;28;20500;-65
2021/07/20 06:49:47;;;;;;;0.82;0.80;;;20.20;99.90;;;;;;5001035;28;20499;-63
2021/07/20 06:52:16;;;;;;;1.23;0.80;;;20.10;99.90;;;;;;5003024;28;20411;-63
2021/07/20 06:54:44;;;;;;;1.60;0.80;;;20.20;99.90;;;;;;5001001;28;20040;-63
2021/07/20 06:57:14;;;;;;;1.77;0.65;;;20.20;99.90;;;;;;5002682;28;20054;-63
2021/07/20 06:59:43;;;;;;;1.30;0.47;;;20.20;99.90;;;;;;4998781;28;20066;-63
2021/07/20 07:02:17;;;;;;;3.83;0.80;;;20.20;99.90;;;;;;5001815;28;20046;-63
2021/07/20 07:05:25;;;;;;;1.35;0.70;;;20.20;99.90;;;;;;4996809;28;20102;-65
2021/07/20 07:07:52;;;;;;;2.10;1.65;;;20.20;99.90;;;;;;4915775;29;20571;-65
2021/07/20 07:10:21;;;;;;;1.45;0.90;;;20.30;99.90;;;;;;4985137;28;20099;-65
2021/07/20 07:12:50;;;;;;;0.98;0.75;;;20.30;99.90;;;;;;5000620;28;20407;-67
2021/07/20 07:15:18;;;;;;;1.50;0.90;;;20.30;99.90;;;;;;5000361;28;20190;-65
2021/07/20 07:17:48;;;;;;;0.80;0.80;;;20.40;99.90;;;;;;5001587;28;20115;-65
2021/07/20 07:20:18;;;;;;;1.17;0.60;;;20.40;99.90;;;;;;5002102;28;20052;-65
2021/07/20 07:22:47;;;;;;;1.15;0.70;;;20.50;99.90;;;;;;5001651;28;20064;-65
2021/07/20 07:25:16;;;;;;;3.85;0.95;;;20.50;99.90;;;;;;5001190;28;20080;-65
2021/07/20 07:27:45;;;;;;;4.10;0.70;;;20.50;99.90;;;;;;4992140;28;20107;-66
2021/07/20 07:30:13;;;;;;;1.65;0.60;;;20.50;99.90;;;;;;4998952;28;20128;-64
2021/07/20 07:32:40;;;;;;;0.80;0.70;;;20.40;99.90;;;;;;5003330;28;20038;-65
2021/07/20 07:35:08;;;;;;;0.65;0.45;;;20.50;99.90;;;;;;5002493;28;20089;-65
2021/07/20 07:37:37;;;;;;;0.95;0.93;;;20.50;99.90;;;;;;4999254;28;20057;-66
2021/07/20 07:40:07;;;;;;;0.95;0.82;;;20.60;99.90;;;;;;4995984;28;20051;-67
2021/07/20 07:42:35;;;;;;;1.40;1.17;;;20.60;99.90;;;;;;4992112;28;20042;-65
2021/07/20 07:45:04;;;;;;;3.10;0.68;;;20.50;99.90;;;;;;5000240;28;20045;-65
2021/07/20 07:47:32;;;;;;;0.47;0.40;;;20.60;99.90;;;;;;5000244;28;20046;-65
2021/07/20 07:50:00;;;;;;;2.67;0.60;;;20.70;99.90;;;;;;4999742;28;20042;-65
2021/07/20 07:52:27;;;;;;;1.70;0.60;;;20.70;99.90;;;;;;4999680;28;20049;-65
2021/07/20 07:54:54;;;;;;;0.82;0.57;;;20.80;99.90;;;;;;5001334;28;20100;-66
2021/07/20 07:57:22;;;;;;;1.08;0.95;;;20.70;99.90;;;;;;4996392;28;20035;-65
2021/07/20 07:59:55;;;;;;;0.82;0.52;;;20.70;99.90;;;;;;5002195;28;20567;-65
2021/07/20 08:02:34;;;;;;;0.85;0.57;;;20.60;99.90;;;;;;5004514;28;20435;-65
2021/07/20 08:05:03;;;;;;;0.98;0.35;;;20.70;99.90;;;;;;5002506;28;20057;-64
2021/07/20 08:07:31;;;;;;;1.17;0.70;;;20.70;99.90;;;;;;5001905;28;20045;-66
2021/07/20 08:09:59;;;;;;;0.50;0.50;;;20.80;99.90;;;;;;5001894;28;20057;-65
2021/07/20 08:12:29;;;;;;;0.70;0.52;;;20.90;99.90;;;;;;4999156;28;20447;-64
2021/07/20 08:14:56;;;;;;;;;;;20.90;99.90;;;;;;5002679;28;20046;-65
2021/07/20 08:17:25;;;;;;;1.13;0.68;;;20.80;99.90;;;;;;4999491;28;19925;-65
2021/07/20 08:19:55;;;;;;;1.00;0.70;;;20.80;99.90;;;;;;5001828;28;20065;-65
2021/07/20 08:22:23;;;;;;;;;;;20.90;99.90;;;;;;5004617;28;20050;-65
2021/07/20 08:25:05;;;;;;;1.40;0.98;;;21.00;99.90;;;;;;5001188;28;19956;-66
2021/07/20 08:27:40;;;;;;;1.52;0.30;;;21.10;99.90;;;;;;5003338;28;20057;-66
2021/07/20 08:30:09;;;;;;;2.40;1.00;;;21.20;99.90;;;;;;5003377;28;20041;-65
2021/07/20 08:32:51;;;;;;;5.65;0.70;;;21.30;99.90;;;;;;5004403;28;20396;-65
2021/07/20 08:35:21;;;;;;;0.80;0.60;;;21.30;99.90;;;;;;5001184;28;20478;-65
2021/07/20 08:38:00;;;;;;;3.70;0.57;;;21.30;99.90;;;;;;5002826;28;20127;-66
2021/07/20 08:40:32;;;;;;;0.80;0.80;;;21.40;99.90;;;;;;5001630;28;20054;-67
2021/07/20 08:43:12;;;;;;;1.02;0.50;;;21.50;99.90;;;;;;4984772;28;20046;-66
2021/07/20 08:46:12;;;;;;;1.35;0.90;;;21.50;99.90;;;;;;5001556;28;20053;-65
2021/07/20 08:48:53;;;;;;;1.08;0.70;;;21.40;99.90;;;;;;4995578;28;20045;-66
2021/07/20 08:51:38;;;;;;;;;;;21.50;99.90;;;;;;5002417;28;20053;-66
2021/07/20 08:54:24;;;;;;;1.23;1.10;;;21.50;99.90;;;;;;5004000;28;20369;-66
2021/07/20 08:56:52;;;;;;;0.70;0.55;;;21.50;99.90;;;;;;5004039;28;20054;-66
2021/07/20 08:59:26;;;;;;;2.20;1.27;;;21.40;99.90;;;;;;5001076;28;20058;-65
2021/07/20 09:02:19;;;;;;;1.67;1.13;;;21.40;99.90;;;;;;5003211;28;20537;-66
2021/07/20 09:04:58;;;;;;;1.73;0.73;;;21.50;99.90;;;;;;5001265;28;20050;-65
2021/07/20 09:07:38;;;;;;;1.58;0.75;;;21.50;99.90;;;;;;5003808;28;20475;-65
2021/07/20 09:10:11;;;;;;;0.45;0.40;;;21.50;99.90;;;;;;5002878;28;20587;-66
2021/07/20 09:12:41;;;;;;;0.47;0.47;;;21.60;99.90;;;;;;5002324;28;20447;-66
2021/07/20 09:15:19;;;;;;;1.00;0.60;;;21.70;99.90;;;;;;4997182;28;20109;-65
2021/07/20 09:17:57;;;;;;;1.35;0.90;;;21.80;99.90;;;;;;4998762;28;20128;-65
2021/07/20 09:20:31;;;;;;;0.90;0.75;;;21.90;99.90;;;;;;4998876;28;20096;-66
2021/07/20 09:22:58;;;;;;;1.73;1.00;;;21.90;99.90;;;;;;4998348;28;20050;-65
2021/07/20 09:25:32;;;;;;;1.88;1.00;;;21.90;99.90;;;;;;4993982;28;20045;-65
2021/07/20 09:28:18;;;;;;;2.42;1.48;;;21.80;99.90;;;;;;5002927;28;20053;-65
2021/07/20 09:30:49;;;;;;;2.97;1.67;;;21.60;99.90;;;;;;5004385;28;20061;-65
2021/07/20 09:33:31;;;;;;;2.10;1.30;;;21.70;99.90;;;;;;5002471;28;20050;-66
2021/07/20 09:36:24;;;;;;;0.63;0.63;;;21.80;99.90;;;;;;4999211;28;20045;-65
2021/07/20 09:39:09;;;;;;;0.90;0.80;;;21.90;99.90;;;;;;4995442;28;20484;-65
2021/07/20 09:41:42;;;;;;;1.13;0.90;;;22.10;99.90;;;;;;5001870;28;20050;-65
2021/07/20 09:44:36;;;;;;;1.58;0.98;;;22.20;99.90;;;;;;5001938;28;20042;-64
2021/07/20 09:47:22;;;;;;;1.65;1.27;;;22.40;99.90;;;;;;5001685;28;20050;-65
2021/07/20 09:50:07;;;;;;;1.10;0.77;;;22.40;99.90;;;;;;4992008;28;20107;-65
2021/07/20 09:52:37;;;;;;;3.25;1.45;;;22.50;99.90;;;;;;5000319;28;20125;-66
2021/07/20 09:55:13;;;;;;;0.90;0.80;;;22.50;99.90;;;;;;5001438;28;20046;-65
2021/07/20 09:58:07;;;;;;;1.02;0.63;;;22.50;99.90;;;;;;4999876;28;20057;-65
2021/07/20 10:00:48;;;;;;;1.10;0.70;;;22.50;99.90;;;;;;5000820;28;20071;-67
2021/07/20 10:03:32;;;;;;;2.22;0.90;;;22.60;99.90;;;;;;5011009;28;20077;-66
2021/07/20 10:06:23;;;;;;;2.17;1.60;;;22.60;99.90;;;;;;4998828;28;20057;-65
2021/07/20 10:09:27;;;;;;;1.95;1.00;;;22.60;99.90;;;;;;4999072;28;20504;-65
2021/07/20 10:11:53;;;;;;;1.33;0.85;;;22.70;99.90;;;;;;4984554;28;20116;-65
2021/07/20 10:15:12;;;;;;;6.20;1.42;;;22.70;99.90;;;;;;4999463;28;20050;-66
2021/07/20 10:17:50;;;;;;;1.83;1.13;;;22.80;99.90;;;;;;4895451;29;20056;-66
2021/07/20 10:20:22;;;;;;;7.10;2.05;;;22.90;99.90;;;;;;4898613;29;20161;-67
2021/07/20 10:22:52;;;;;;;2.17;1.20;;;22.80;99.90;;;;;;4957219;28;20255;-65
2021/07/20 10:25:33;;;;;;;1.67;0.95;;;22.80;99.90;;;;;;5000875;28;20052;-66
2021/07/20 10:28:08;;;;;;;1.55;1.45;;;22.80;99.90;;;;;;5000033;28;20338;-66
2021/07/20 10:30:38;;;;;;;1.45;1.05;;;22.80;99.90;;;;;;4998330;28;20050;-65
2021/07/20 10:33:25;;;;;;;1.50;1.02;;;22.80;99.90;;;;;;5001422;28;20104;-65
2021/07/20 10:35:55;;;;;;;1.20;1.02;;;23.00;99.90;;;;;;4996315;28;20049;-66
2021/07/20 10:38:36;;;;;;;3.08;1.25;;;23.00;99.90;;;;;;5000469;28;20061;-67
2021/07/20 10:41:06;;;;;;;2.85;1.42;;;23.10;99.90;;;;;;4997930;28;20049;-65
2021/07/20 10:43:39;;;;;;;1.13;0.93;;;23.20;99.90;;;;;;4994174;28;20127;-66
2021/07/20 10:46:09;;;;;;;1.40;1.30;;;23.20;99.90;;;;;;4995932;28;20057;-66
2021/07/20 10:48:41;;;;;;;2.03;1.33;;;23.00;99.90;;;;;;4996722;28;20062;-68
2021/07/20 10:51:18;;;;;;;5.28;1.35;;;22.90;99.90;;;;;;4994362;28;21428;-67
2021/07/20 10:54:05;;;;;;;3.08;2.10;;;22.90;99.90;;;;;;4993405;28;20099;-65
2021/07/20 10:56:42;;;;;;;2.10;1.33;;;23.00;99.90;;;;;;4980175;28;20229;-66
2021/07/20 10:59:19;;;;;;;1.77;1.10;;;23.10;99.90;;;;;;4995652;28;20112;-68
2021/07/20 11:02:22;;;;;;;1.67;1.25;;;23.20;99.90;;;;;;4995745;28;20057;-65
2021/07/20 11:04:58;;;;;;;3.80;2.08;;;23.30;99.90;;;;;;4997269;28;20081;-66
2021/07/20 11:07:52;;;;;;;2.22;1.40;;;23.20;99.90;;;;;;4998797;28;20046;-65
2021/07/20 11:10:23;;;;;;;3.03;1.30;;;23.30;99.90;;;;;;4996859;28;20046;-67
2021/07/20 11:12:56;;;;;;;4.55;2.05;;;23.20;99.90;;;;;;4997663;28;20057;-67
2021/07/20 11:15:26;;;;;;;9.18;1.90;;;23.40;99.90;;;;;;4994211;28;20318;-65
2021/07/20 11:17:55;;;;;;;2.65;1.23;;;23.50;99.90;;;;;;4999316;28;20117;-66
2021/07/20 11:20:31;;;;;;;2.20;1.50;;;23.60;99.90;;;;;;4996042;28;20052;-68
2021/07/20 11:22:59;;;;;;;3.00;1.33;;;23.50;99.90;;;;;;4999263;28;20136;-65
2021/07/20 11:25:28;;;;;;;2.88;1.30;;;23.40;99.90;;;;;;4994900;28;20053;-66
2021/07/20 11:27:58;;;;;;;9.18;1.40;;;23.50;99.90;;;;;;4998257;28;20108;-65
2021/07/20 11:30:31;;;;;;;1.95;1.00;;;23.40;99.90;;;;;;4997714;28;20390;-68
2021/07/20 11:33:11;;;;;;;2.42;1.50;;;23.50;99.90;;;;;;5000384;28;20503;-66
2021/07/20 11:35:41;;;;;;;1.73;1.20;;;23.60;99.90;;;;;;4998644;28;20069;-65
2021/07/20 11:38:11;;;;;;;3.42;1.65;;;23.70;99.90;;;;;;5005083;28;20079;-66
2021/07/20 11:41:12;;;;;;;1.60;1.30;;;23.60;99.90;;;;;;5003682;28;20054;-66
2021/07/20 11:43:41;;;;;;;;;;;23.70;99.90;;;;;;4999688;28;20046;-66
2021/07/20 11:46:12;;;;;;;2.33;1.35;;;23.70;99.90;;;;;;5002444;28;19925;-68
2021/07/20 11:48:48;;;;;;;1.63;1.52;;;23.70;99.90;;;;;;5004547;28;20061;-66
2021/07/20 11:51:50;;;;;;;4.20;1.73;;;23.80;99.90;;;;;;5003806;28;20049;-67
2021/07/20 11:54:40;;;;;;;1.67;1.48;;;23.70;99.90;;;;;;4947999;28;20065;-65
2021/07/20 11:57:29;;;;;;;1.85;1.63;;;23.80;99.90;;;;;;4983900;28;20042;-66
2021/07/20 12:00:24;;;;;;;2.83;2.42;;;24.00;99.90;;;;;;5004059;28;20104;-65
2021/07/20 12:03:15;;;;;;;4.00;1.50;;;24.10;99.90;;;;;;5004190;28;20053;-67
2021/07/20 12:06:01;;;;;;;5.75;1.58;;;24.10;99.90;;;;;;4998266;28;20049;-66
2021/07/20 12:08:42;;;;;;;1.80;1.52;;;24.20;99.90;;;;;;5001177;28;20054;-67
2021/07/20 12:11:19;;;;;;;;;;;24.10;99.90;;;;;;4999420;28;20120;-67
2021/07/20 12:13:47;;;;;;;2.55;1.40;;;24.30;99.90;;;;;;4997328;28;19925;-67
2021/07/20 12:16:15;;;;;;;2.00;1.38;;;24.10;99.90;;;;;;5000763;28;20141;-68
2021/07/20 12:18:54;;;;;;;2.75;1.10;;;24.20;99.90;;;;;;5000474;28;20050;-66
2021/07/20 12:21:26;;;;;;;1.88;1.20;;;24.40;99.90;;;;;;4996809;28;20046;-68
2021/07/20 12:23:57;;;;;;;2.97;1.20;;;24.20;99.90;;;;;;5001515;28;20053;-65
2021/07/20 12:26:27;;;;;;;1.77;1.40;;;23.90;99.90;;;;;;4997741;28;20054;-66
2021/07/20 12:28:56;;;;;;;2.97;1.25;;;24.00;99.90;;;;;;4980936;28;20115;-66
2021/07/20 12:31:27;;;;;;;1.27;1.17;;;24.00;99.90;;;;;;4999633;28;20663;-66
2021/07/20 12:33:55;;;;;;;1.55;1.45;;;24.10;99.90;;;;;;5002276;28;20104;-65
2021/07/20 12:36:23;;;;;;;2.42;1.85;;;24.10;99.90;;;;;;5002343;28;20104;-66
2021/07/20 12:39:13;;;;;;;4.05;1.85;;;24.10;99.90;;;;;;5000609;28;20054;-66
2021/07/20 12:41:52;;;;;;;5.95;2.70;;;24.10;99.90;;;;;;4997027;28;20116;-66
2021/07/20 12:44:34;;;;;;;3.63;2.03;;;24.30;99.90;;;;;;5001154;28;20050;-66
2021/07/20 12:47:07;;;;;;;3.10;1.60;;;24.40;99.90;;;;;;4998579;28;20073;-67
2021/07/20 12:49:39;;;;;;;2.88;1.63;;;24.60;99.90;;;;;;4997281;28;20045;-67
2021/07/20 12:52:06;;;;;;;2.83;1.88;;;24.80;99.90;;;;;;5002654;28;20046;-66
2021/07/20 12:54:40;;;;;;;3.35;1.80;;;24.90;99.90;;;;;;5002686;28;20056;-66
2021/07/20 12:57:10;;;;;;;2.60;1.73;;;24.80;99.90;;;;;;5003426;28;20108;-66
2021/07/20 12:59:58;;;;;;;1.75;1.40;;;24.80;99.90;;;;;;5000101;28;20216;-65
2021/07/20 13:02:25;;;;;;;3.47;2.90;;;24.80;99.90;;;;;;5006882;28;20046;-66
2021/07/20 13:04:56;;;;;;;2.42;1.77;;;24.70;99.90;;;;;;4987878;28;20053;-66
2021/07/20 13:07:24;;;;;;;2.55;2.25;;;24.60;99.90;;;;;;5001136;28;20049;-67
2021/07/20 13:09:53;;;;;;;3.42;2.08;;;24.60;99.90;;;;;;5000804;28;20050;-65
2021/07/20 13:12:20;;;;;;;2.67;2.47;;;24.60;99.90;;;;;;5004531;28;20053;-66
2021/07/20 13:14:48;;;;;;;3.78;2.05;;;24.50;99.90;;;;;;5007001;28;20048;-67
2021/07/20 13:17:18;;;;;;;3.30;2.15;;;24.40;99.90;;;;;;5006265;28;20066;-65
2021/07/20 13:19:46;;;;;;;5.00;2.42;;;24.40;99.90;;;;;;5002638;28;20057;-66
2021/07/20 13:22:24;;;;;;;2.22;1.95;;;24.50;99.90;;;;;;5000981;28;20526;-65
2021/07/20 13:24:52;;;;;;;3.75;2.28;;;24.60;99.90;;;;;;5003859;28;20132;-66